sensor_id;sensor_type;location;lat;lon;timestamp;P1;durP1;ratioP1;P2;durP2;ratioP2
67028;SDS011;53934;52.142;11.738;2022-12-07T00:00:51;24.98;;;8.68;;
67028;SDS011;53934;52.142;11.738;2022-12-07T00:03:18;16.60;;;7.43;;
67028;SDS011;53934;52.142;11.738;2022-12-07T00:05:44;20.05;;;8.48;;
67028;SDS011;53934;52.142;11.738;2022-12-07T00:08:11;17.92;;;8.50;;
67028;SDS011;53934;52.142;11.738;2022-12-07T00:10:37;20.80;;;8.75;;
67028;SDS011;53934;52.142;11.738;2022-12-07T00:13:04;20.38;;;8.75;;
67028;SDS011;53934;52.142;11.738;2022-12-07T00:15:32;20.27;;;8.15;;
67028;SDS011;53934;52.142;11.738;2022-12-07T00:17:59;21.50;;;9.73;;
67028;SDS011;53934;52.142;11.738;2022-12-07T00:20:26;19.85;;;8.48;;
67028;SDS011;53934;52.142;11.738;2022-12-07T00:22:52;22.52;;;8.35;;
67028;SDS011;53934;52.142;11.738;2022-12-07T00:25:19;26.95;;;8.32;;
67028;SDS011;53934;52.142;11.738;2022-12-07T00:27:45;27.27;;;8.57;;
67028;SDS011;53934;52.142;11.738;2022-12-07T00:30:12;21.25;;;8.32;;
67028;SDS011;53934;52.142;11.738;2022-12-07T00:32:40;20.90;;;8.70;;
67028;SDS011;53934;52.142;11.738;2022-12-07T00:35:07;27.02;;;9.35;;
67028;SDS011;53934;52.142;11.738;2022-12-07T00:37:33;24.00;;;8.80;;
67028;SDS011;53934;52.142;11.738;2022-12-07T00:40:00;25.25;;;9.82;;
67028;SDS011;53934;52.142;11.738;2022-12-07T00:42:26;30.48;;;10.05;;
67028;SDS011;53934;52.142;11.738;2022-12-07T00:44:53;24.77;;;9.35;;
67028;SDS011;53934;52.142;11.738;2022-12-07T00:47:19;28.27;;;10.98;;
67028;SDS011;53934;52.142;11.738;2022-12-07T00:49:47;27.73;;;11.23;;
67028;SDS011;53934;52.142;11.738;2022-12-07T00:52:13;29.20;;;11.80;;
67028;SDS011;53934;52.142;11.738;2022-12-07T00:54:40;30.17;;;11.60;;
67028;SDS011;53934;52.142;11.738;2022-12-07T00:57:06;35.35;;;11.52;;
67028;SDS011;53934;52.142;11.738;2022-12-07T00:59:33;32.03;;;12.05;;
67028;SDS011;53934;52.142;11.738;2022-12-07T01:02:00;29.42;;;11.45;;
67028;SDS011;53934;52.142;11.738;2022-12-07T01:04:26;27.67;;;10.88;;
67028;SDS011;53934;52.142;11.738;2022-12-07T01:06:54;34.53;;;12.43;;
67028;SDS011;53934;52.142;11.738;2022-12-07T01:09:20;34.70;;;11.00;;
67028;SDS011;53934;52.142;11.738;2022-12-07T01:11:47;35.38;;;12.50;;
67028;SDS011;53934;52.142;11.738;2022-12-07T01:14:13;38.20;;;13.57;;
67028;SDS011;53934;52.142;11.738;2022-12-07T01:16:40;35.75;;;13.48;;
67028;SDS011;53934;52.142;11.738;2022-12-07T01:19:06;32.63;;;11.40;;
67028;SDS011;53934;52.142;11.738;2022-12-07T01:21:33;28.00;;;11.23;;
67028;SDS011;53934;52.142;11.738;2022-12-07T01:24:04;31.15;;;11.90;;
67028;SDS011;53934;52.142;11.738;2022-12-07T01:26:32;28.10;;;11.75;;
67028;SDS011;53934;52.142;11.738;2022-12-07T01:28:58;30.67;;;11.90;;
67028;SDS011;53934;52.142;11.738;2022-12-07T01:31:26;33.47;;;12.25;;
67028;SDS011;53934;52.142;11.738;2022-12-07T01:33:54;26.63;;;11.55;;
67028;SDS011;53934;52.142;11.738;2022-12-07T01:36:22;39.25;;;12.10;;
67028;SDS011;53934;52.142;11.738;2022-12-07T01:38:51;30.70;;;11.68;;
67028;SDS011;53934;52.142;11.738;2022-12-07T01:41:23;34.33;;;14.07;;
67028;SDS011;53934;52.142;11.738;2022-12-07T01:46:38;27.67;;;11.75;;
67028;SDS011;53934;52.142;11.738;2022-12-07T01:49:06;35.42;;;13.85;;
67028;SDS011;53934;52.142;11.738;2022-12-07T01:51:36;30.98;;;13.05;;
67028;SDS011;53934;52.142;11.738;2022-12-07T01:54:04;36.28;;;13.05;;
67028;SDS011;53934;52.142;11.738;2022-12-07T01:56:32;30.00;;;10.95;;
67028;SDS011;53934;52.142;11.738;2022-12-07T01:58:59;28.45;;;12.15;;
67028;SDS011;53934;52.142;11.738;2022-12-07T02:01:27;27.15;;;11.93;;
67028;SDS011;53934;52.142;11.738;2022-12-07T02:03:54;36.33;;;13.30;;
67028;SDS011;53934;52.142;11.738;2022-12-07T02:06:22;34.05;;;12.23;;
67028;SDS011;53934;52.142;11.738;2022-12-07T02:08:50;28.50;;;11.85;;
67028;SDS011;53934;52.142;11.738;2022-12-07T02:11:17;28.65;;;12.07;;
67028;SDS011;53934;52.142;11.738;2022-12-07T02:13:46;30.30;;;11.88;;
67028;SDS011;53934;52.142;11.738;2022-12-07T02:16:15;24.67;;;10.98;;
67028;SDS011;53934;52.142;11.738;2022-12-07T02:19:14;30.10;;;12.70;;
67028;SDS011;53934;52.142;11.738;2022-12-07T02:21:55;17.83;;;9.45;;
67028;SDS011;53934;52.142;11.738;2022-12-07T02:24:37;28.98;;;11.80;;
67028;SDS011;53934;52.142;11.738;2022-12-07T02:27:28;24.83;;;10.40;;
67028;SDS011;53934;52.142;11.738;2022-12-07T02:30:13;21.08;;;9.88;;
67028;SDS011;53934;52.142;11.738;2022-12-07T02:32:42;23.70;;;10.45;;
67028;SDS011;53934;52.142;11.738;2022-12-07T02:35:15;24.67;;;10.25;;
67028;SDS011;53934;52.142;11.738;2022-12-07T02:37:47;22.38;;;10.52;;
67028;SDS011;53934;52.142;11.738;2022-12-07T02:40:22;22.30;;;9.75;;
67028;SDS011;53934;52.142;11.738;2022-12-07T02:42:53;18.60;;;9.43;;
67028;SDS011;53934;52.142;11.738;2022-12-07T02:45:26;21.15;;;10.23;;
67028;SDS011;53934;52.142;11.738;2022-12-07T02:47:56;27.50;;;10.75;;
67028;SDS011;53934;52.142;11.738;2022-12-07T02:50:25;20.42;;;9.52;;
67028;SDS011;53934;52.142;11.738;2022-12-07T02:52:52;19.42;;;9.27;;
67028;SDS011;53934;52.142;11.738;2022-12-07T02:55:19;22.70;;;9.70;;
67028;SDS011;53934;52.142;11.738;2022-12-07T02:57:54;18.63;;;9.13;;
67028;SDS011;53934;52.142;11.738;2022-12-07T03:00:32;20.88;;;9.43;;
67028;SDS011;53934;52.142;11.738;2022-12-07T03:03:05;18.00;;;9.90;;
67028;SDS011;53934;52.142;11.738;2022-12-07T03:05:45;22.85;;;10.50;;
67028;SDS011;53934;52.142;11.738;2022-12-07T03:08:24;18.90;;;9.18;;
67028;SDS011;53934;52.142;11.738;2022-12-07T03:11:00;20.60;;;9.57;;
67028;SDS011;53934;52.142;11.738;2022-12-07T03:13:30;21.13;;;8.75;;
67028;SDS011;53934;52.142;11.738;2022-12-07T03:16:03;18.05;;;8.63;;
67028;SDS011;53934;52.142;11.738;2022-12-07T03:18:35;21.88;;;10.30;;
67028;SDS011;53934;52.142;11.738;2022-12-07T03:21:09;22.52;;;9.88;;
67028;SDS011;53934;52.142;11.738;2022-12-07T03:23:38;19.15;;;9.63;;
67028;SDS011;53934;52.142;11.738;2022-12-07T03:26:08;20.98;;;9.55;;
67028;SDS011;53934;52.142;11.738;2022-12-07T03:28:39;19.48;;;9.25;;
67028;SDS011;53934;52.142;11.738;2022-12-07T03:31:13;19.85;;;9.18;;
67028;SDS011;53934;52.142;11.738;2022-12-07T03:33:44;24.67;;;10.52;;
67028;SDS011;53934;52.142;11.738;2022-12-07T03:36:17;17.15;;;8.43;;
67028;SDS011;53934;52.142;11.738;2022-12-07T03:38:48;19.17;;;8.70;;
67028;SDS011;53934;52.142;11.738;2022-12-07T03:43:49;20.90;;;9.57;;
67028;SDS011;53934;52.142;11.738;2022-12-07T03:46:19;20.40;;;9.05;;
67028;SDS011;53934;52.142;11.738;2022-12-07T03:48:54;16.40;;;8.30;;
67028;SDS011;53934;52.142;11.738;2022-12-07T03:51:27;22.55;;;9.70;;
67028;SDS011;53934;52.142;11.738;2022-12-07T03:54:00;17.20;;;9.27;;
67028;SDS011;53934;52.142;11.738;2022-12-07T03:56:34;20.73;;;9.68;;
67028;SDS011;53934;52.142;11.738;2022-12-07T03:59:01;19.70;;;10.15;;
67028;SDS011;53934;52.142;11.738;2022-12-07T04:01:29;25.42;;;10.68;;
67028;SDS011;53934;52.142;11.738;2022-12-07T04:03:55;20.35;;;10.20;;
67028;SDS011;53934;52.142;11.738;2022-12-07T04:06:22;24.83;;;11.68;;
67028;SDS011;53934;52.142;11.738;2022-12-07T04:08:48;24.10;;;10.60;;
67028;SDS011;53934;52.142;11.738;2022-12-07T04:11:15;35.67;;;11.10;;
67028;SDS011;53934;52.142;11.738;2022-12-07T04:13:41;23.17;;;11.00;;
67028;SDS011;53934;52.142;11.738;2022-12-07T04:16:25;29.15;;;12.20;;
67028;SDS011;53934;52.142;11.738;2022-12-07T04:18:53;25.88;;;12.38;;
67028;SDS011;53934;52.142;11.738;2022-12-07T04:21:20;24.50;;;12.00;;
67028;SDS011;53934;52.142;11.738;2022-12-07T04:23:46;29.90;;;12.48;;
67028;SDS011;53934;52.142;11.738;2022-12-07T04:26:12;24.40;;;11.80;;
67028;SDS011;53934;52.142;11.738;2022-12-07T04:28:39;29.15;;;12.32;;
67028;SDS011;53934;52.142;11.738;2022-12-07T04:31:05;23.95;;;11.63;;
67028;SDS011;53934;52.142;11.738;2022-12-07T04:33:32;25.35;;;11.73;;
67028;SDS011;53934;52.142;11.738;2022-12-07T04:36:00;22.40;;;11.85;;
67028;SDS011;53934;52.142;11.738;2022-12-07T04:38:26;26.25;;;11.73;;
67028;SDS011;53934;52.142;11.738;2022-12-07T04:40:52;27.45;;;13.13;;
67028;SDS011;53934;52.142;11.738;2022-12-07T04:43:20;22.27;;;11.85;;
67028;SDS011;53934;52.142;11.738;2022-12-07T04:45:47;24.92;;;12.45;;
67028;SDS011;53934;52.142;11.738;2022-12-07T04:48:13;28.95;;;12.68;;
67028;SDS011;53934;52.142;11.738;2022-12-07T04:50:40;23.58;;;12.50;;
67028;SDS011;53934;52.142;11.738;2022-12-07T04:53:08;25.60;;;13.00;;
67028;SDS011;53934;52.142;11.738;2022-12-07T04:55:34;30.90;;;13.50;;
67028;SDS011;53934;52.142;11.738;2022-12-07T04:58:02;25.48;;;12.35;;
67028;SDS011;53934;52.142;11.738;2022-12-07T05:00:28;25.45;;;12.45;;
67028;SDS011;53934;52.142;11.738;2022-12-07T05:02:54;26.05;;;13.38;;
67028;SDS011;53934;52.142;11.738;2022-12-07T05:05:21;23.02;;;11.45;;
67028;SDS011;53934;52.142;11.738;2022-12-07T05:07:47;29.85;;;13.45;;
67028;SDS011;53934;52.142;11.738;2022-12-07T05:10:15;28.58;;;13.57;;
67028;SDS011;53934;52.142;11.738;2022-12-07T05:12:42;26.25;;;13.38;;
67028;SDS011;53934;52.142;11.738;2022-12-07T05:15:08;31.65;;;14.05;;
67028;SDS011;53934;52.142;11.738;2022-12-07T05:17:35;26.45;;;12.88;;
67028;SDS011;53934;52.142;11.738;2022-12-07T05:20:02;26.17;;;14.73;;
67028;SDS011;53934;52.142;11.738;2022-12-07T05:22:29;26.83;;;13.90;;
67028;SDS011;53934;52.142;11.738;2022-12-07T05:24:56;21.95;;;11.50;;
67028;SDS011;53934;52.142;11.738;2022-12-07T05:27:24;24.00;;;12.73;;
67028;SDS011;53934;52.142;11.738;2022-12-07T05:29:50;25.65;;;13.80;;
67028;SDS011;53934;52.142;11.738;2022-12-07T05:32:17;26.00;;;13.00;;
67028;SDS011;53934;52.142;11.738;2022-12-07T05:34:44;27.17;;;13.80;;
67028;SDS011;53934;52.142;11.738;2022-12-07T05:37:11;29.77;;;13.38;;
67028;SDS011;53934;52.142;11.738;2022-12-07T05:39:37;28.17;;;13.30;;
67028;SDS011;53934;52.142;11.738;2022-12-07T05:42:05;25.30;;;12.38;;
67028;SDS011;53934;52.142;11.738;2022-12-07T05:44:39;23.33;;;11.75;;
67028;SDS011;53934;52.142;11.738;2022-12-07T05:47:06;24.48;;;12.02;;
67028;SDS011;53934;52.142;11.738;2022-12-07T05:49:33;22.15;;;12.77;;
67028;SDS011;53934;52.142;11.738;2022-12-07T05:51:59;23.50;;;11.95;;
67028;SDS011;53934;52.142;11.738;2022-12-07T05:54:26;27.90;;;13.00;;
67028;SDS011;53934;52.142;11.738;2022-12-07T05:56:52;22.35;;;11.18;;
67028;SDS011;53934;52.142;11.738;2022-12-07T05:59:19;21.85;;;12.30;;
67028;SDS011;53934;52.142;11.738;2022-12-07T06:01:49;24.42;;;12.65;;
67028;SDS011;53934;52.142;11.738;2022-12-07T06:04:15;22.23;;;11.02;;
67028;SDS011;53934;52.142;11.738;2022-12-07T06:06:42;21.58;;;11.13;;
67028;SDS011;53934;52.142;11.738;2022-12-07T06:09:09;20.15;;;11.38;;
67028;SDS011;53934;52.142;11.738;2022-12-07T06:11:36;21.67;;;11.20;;
67028;SDS011;53934;52.142;11.738;2022-12-07T06:14:20;21.75;;;11.40;;
67028;SDS011;53934;52.142;11.738;2022-12-07T06:16:47;20.52;;;10.45;;
67028;SDS011;53934;52.142;11.738;2022-12-07T06:19:15;23.02;;;10.65;;
67028;SDS011;53934;52.142;11.738;2022-12-07T06:21:42;19.15;;;10.90;;
67028;SDS011;53934;52.142;11.738;2022-12-07T06:24:09;22.00;;;10.55;;
67028;SDS011;53934;52.142;11.738;2022-12-07T06:26:37;20.38;;;10.70;;
67028;SDS011;53934;52.142;11.738;2022-12-07T06:29:04;19.38;;;10.50;;
67028;SDS011;53934;52.142;11.738;2022-12-07T06:31:30;19.10;;;10.68;;
67028;SDS011;53934;52.142;11.738;2022-12-07T06:33:59;20.70;;;10.98;;
67028;SDS011;53934;52.142;11.738;2022-12-07T06:36:26;21.27;;;11.32;;
67028;SDS011;53934;52.142;11.738;2022-12-07T06:38:53;19.00;;;9.15;;
67028;SDS011;53934;52.142;11.738;2022-12-07T06:41:19;17.88;;;8.82;;
67028;SDS011;53934;52.142;11.738;2022-12-07T06:43:46;20.20;;;9.10;;
67028;SDS011;53934;52.142;11.738;2022-12-07T06:46:13;16.85;;;10.00;;
67028;SDS011;53934;52.142;11.738;2022-12-07T06:48:39;18.35;;;10.32;;
67028;SDS011;53934;52.142;11.738;2022-12-07T06:51:07;18.45;;;9.65;;
67028;SDS011;53934;52.142;11.738;2022-12-07T06:53:34;18.45;;;8.68;;
67028;SDS011;53934;52.142;11.738;2022-12-07T06:56:01;16.35;;;8.65;;
67028;SDS011;53934;52.142;11.738;2022-12-07T06:58:27;13.73;;;7.72;;
67028;SDS011;53934;52.142;11.738;2022-12-07T07:00:54;11.15;;;6.28;;
67028;SDS011;53934;52.142;11.738;2022-12-07T07:03:20;14.55;;;7.47;;
67028;SDS011;53934;52.142;11.738;2022-12-07T07:05:47;10.88;;;6.80;;
67028;SDS011;53934;52.142;11.738;2022-12-07T07:08:15;17.60;;;6.85;;
67028;SDS011;53934;52.142;11.738;2022-12-07T07:10:41;12.98;;;6.10;;
67028;SDS011;53934;52.142;11.738;2022-12-07T07:13:07;15.05;;;6.53;;
67028;SDS011;53934;52.142;11.738;2022-12-07T07:15:34;12.88;;;6.03;;
67028;SDS011;53934;52.142;11.738;2022-12-07T07:18:03;15.32;;;6.80;;
67028;SDS011;53934;52.142;11.738;2022-12-07T07:20:29;18.00;;;6.53;;
67028;SDS011;53934;52.142;11.738;2022-12-07T07:22:56;11.82;;;4.80;;
67028;SDS011;53934;52.142;11.738;2022-12-07T07:25:24;12.90;;;5.85;;
67028;SDS011;53934;52.142;11.738;2022-12-07T07:27:50;9.27;;;4.93;;
67028;SDS011;53934;52.142;11.738;2022-12-07T07:30:17;19.17;;;6.40;;
67028;SDS011;53934;52.142;11.738;2022-12-07T07:32:43;11.70;;;4.55;;
67028;SDS011;53934;52.142;11.738;2022-12-07T07:35:09;12.32;;;5.65;;
67028;SDS011;53934;52.142;11.738;2022-12-07T07:37:36;12.77;;;4.90;;
67028;SDS011;53934;52.142;11.738;2022-12-07T07:40:03;10.13;;;5.32;;
67028;SDS011;53934;52.142;11.738;2022-12-07T07:42:31;11.35;;;5.35;;
67028;SDS011;53934;52.142;11.738;2022-12-07T07:44:58;10.93;;;5.35;;
67028;SDS011;53934;52.142;11.738;2022-12-07T07:47:24;14.27;;;5.60;;
67028;SDS011;53934;52.142;11.738;2022-12-07T07:49:50;11.02;;;5.53;;
67028;SDS011;53934;52.142;11.738;2022-12-07T07:52:17;10.43;;;5.32;;
67028;SDS011;53934;52.142;11.738;2022-12-07T07:54:43;10.50;;;5.32;;
67028;SDS011;53934;52.142;11.738;2022-12-07T07:57:10;12.55;;;4.75;;
67028;SDS011;53934;52.142;11.738;2022-12-07T07:59:38;11.65;;;5.65;;
67028;SDS011;53934;52.142;11.738;2022-12-07T08:02:04;11.27;;;5.50;;
67028;SDS011;53934;52.142;11.738;2022-12-07T08:04:30;8.43;;;4.85;;
67028;SDS011;53934;52.142;11.738;2022-12-07T08:06:57;9.88;;;4.80;;
67028;SDS011;53934;52.142;11.738;2022-12-07T08:09:23;10.05;;;5.07;;
67028;SDS011;53934;52.142;11.738;2022-12-07T08:11:50;11.95;;;4.90;;
67028;SDS011;53934;52.142;11.738;2022-12-07T08:14:16;13.90;;;5.43;;
67028;SDS011;53934;52.142;11.738;2022-12-07T08:16:44;10.73;;;4.30;;
67028;SDS011;53934;52.142;11.738;2022-12-07T08:19:10;12.02;;;4.93;;
67028;SDS011;53934;52.142;11.738;2022-12-07T08:21:37;11.82;;;5.22;;
67028;SDS011;53934;52.142;11.738;2022-12-07T08:24:03;13.20;;;6.80;;
67028;SDS011;53934;52.142;11.738;2022-12-07T08:26:30;14.35;;;4.93;;
67028;SDS011;53934;52.142;11.738;2022-12-07T08:28:57;15.00;;;5.57;;
67028;SDS011;53934;52.142;11.738;2022-12-07T08:31:23;9.07;;;4.95;;
67028;SDS011;53934;52.142;11.738;2022-12-07T08:33:51;12.70;;;5.38;;
67028;SDS011;53934;52.142;11.738;2022-12-07T08:36:17;11.05;;;5.28;;
67028;SDS011;53934;52.142;11.738;2022-12-07T08:38:44;11.90;;;5.63;;
67028;SDS011;53934;52.142;11.738;2022-12-07T08:41:10;13.32;;;5.85;;
67028;SDS011;53934;52.142;11.738;2022-12-07T08:43:37;10.50;;;5.75;;
67028;SDS011;53934;52.142;11.738;2022-12-07T08:46:06;10.85;;;5.20;;
67028;SDS011;53934;52.142;11.738;2022-12-07T08:48:36;11.80;;;5.50;;
67028;SDS011;53934;52.142;11.738;2022-12-07T08:51:08;11.25;;;6.00;;
67028;SDS011;53934;52.142;11.738;2022-12-07T08:53:35;8.40;;;5.03;;
67028;SDS011;53934;52.142;11.738;2022-12-07T08:56:04;10.40;;;5.70;;
67028;SDS011;53934;52.142;11.738;2022-12-07T08:58:32;10.93;;;5.78;;
67028;SDS011;53934;52.142;11.738;2022-12-07T09:00:59;11.65;;;6.22;;
67028;SDS011;53934;52.142;11.738;2022-12-07T09:03:25;15.35;;;6.00;;
67028;SDS011;53934;52.142;11.738;2022-12-07T09:05:52;13.63;;;6.35;;
67028;SDS011;53934;52.142;11.738;2022-12-07T09:08:20;10.15;;;5.18;;
67028;SDS011;53934;52.142;11.738;2022-12-07T09:10:48;12.65;;;5.13;;
67028;SDS011;53934;52.142;11.738;2022-12-07T09:13:14;11.57;;;4.90;;
67028;SDS011;53934;52.142;11.738;2022-12-07T09:15:41;9.05;;;4.38;;
67028;SDS011;53934;52.142;11.738;2022-12-07T09:18:07;10.05;;;4.40;;
67028;SDS011;53934;52.142;11.738;2022-12-07T09:20:34;9.00;;;3.45;;
67028;SDS011;53934;52.142;11.738;2022-12-07T09:23:00;9.70;;;3.80;;
67028;SDS011;53934;52.142;11.738;2022-12-07T09:25:28;6.32;;;3.22;;
67028;SDS011;53934;52.142;11.738;2022-12-07T09:27:55;10.55;;;3.33;;
67028;SDS011;53934;52.142;11.738;2022-12-07T09:30:22;6.05;;;3.38;;
67028;SDS011;53934;52.142;11.738;2022-12-07T09:32:49;5.72;;;3.33;;
67028;SDS011;53934;52.142;11.738;2022-12-07T09:35:15;9.43;;;3.83;;
67028;SDS011;53934;52.142;11.738;2022-12-07T09:37:42;8.93;;;3.60;;
67028;SDS011;53934;52.142;11.738;2022-12-07T09:40:08;6.43;;;3.20;;
67028;SDS011;53934;52.142;11.738;2022-12-07T09:42:37;13.00;;;3.50;;
67028;SDS011;53934;52.142;11.738;2022-12-07T09:45:05;10.85;;;3.92;;
67028;SDS011;53934;52.142;11.738;2022-12-07T09:47:37;8.82;;;3.80;;
67028;SDS011;53934;52.142;11.738;2022-12-07T09:50:04;7.60;;;3.58;;
67028;SDS011;53934;52.142;11.738;2022-12-07T09:52:33;8.60;;;3.63;;
67028;SDS011;53934;52.142;11.738;2022-12-07T09:55:01;8.05;;;3.47;;
67028;SDS011;53934;52.142;11.738;2022-12-07T09:57:28;6.05;;;3.20;;
67028;SDS011;53934;52.142;11.738;2022-12-07T09:59:59;6.32;;;3.53;;
67028;SDS011;53934;52.142;11.738;2022-12-07T10:02:32;10.73;;;4.10;;
67028;SDS011;53934;52.142;11.738;2022-12-07T10:05:03;9.35;;;3.78;;
67028;SDS011;53934;52.142;11.738;2022-12-07T10:07:31;6.97;;;3.80;;
67028;SDS011;53934;52.142;11.738;2022-12-07T10:09:58;7.88;;;3.42;;
67028;SDS011;53934;52.142;11.738;2022-12-07T10:12:24;9.75;;;3.95;;
67028;SDS011;53934;52.142;11.738;2022-12-07T10:14:56;7.95;;;4.13;;
67028;SDS011;53934;52.142;11.738;2022-12-07T10:17:28;7.05;;;3.60;;
67028;SDS011;53934;52.142;11.738;2022-12-07T10:20:17;8.68;;;3.53;;
67028;SDS011;53934;52.142;11.738;2022-12-07T10:22:56;8.48;;;3.78;;
67028;SDS011;53934;52.142;11.738;2022-12-07T10:25:25;6.38;;;3.70;;
67028;SDS011;53934;52.142;11.738;2022-12-07T10:28:00;9.57;;;3.88;;
67028;SDS011;53934;52.142;11.738;2022-12-07T10:30:30;7.40;;;3.50;;
67028;SDS011;53934;52.142;11.738;2022-12-07T10:32:57;9.73;;;4.05;;
67028;SDS011;53934;52.142;11.738;2022-12-07T10:35:24;8.65;;;3.85;;
67028;SDS011;53934;52.142;11.738;2022-12-07T10:37:53;5.28;;;2.95;;
67028;SDS011;53934;52.142;11.738;2022-12-07T10:40:25;7.15;;;3.20;;
67028;SDS011;53934;52.142;11.738;2022-12-07T10:43:05;9.20;;;3.80;;
67028;SDS011;53934;52.142;11.738;2022-12-07T10:45:43;5.22;;;2.80;;
67028;SDS011;53934;52.142;11.738;2022-12-07T10:48:29;5.18;;;2.60;;
67028;SDS011;53934;52.142;11.738;2022-12-07T10:51:05;7.15;;;3.15;;
67028;SDS011;53934;52.142;11.738;2022-12-07T10:53:39;10.93;;;3.40;;
67028;SDS011;53934;52.142;11.738;2022-12-07T10:59:22;10.00;;;2.92;;
67028;SDS011;53934;52.142;11.738;2022-12-07T11:02:09;6.30;;;3.03;;
67028;SDS011;53934;52.142;11.738;2022-12-07T11:04:54;8.32;;;3.25;;
67028;SDS011;53934;52.142;11.738;2022-12-07T11:07:30;6.28;;;2.92;;
67028;SDS011;53934;52.142;11.738;2022-12-07T11:10:08;9.52;;;3.20;;
67028;SDS011;53934;52.142;11.738;2022-12-07T11:12:44;10.73;;;3.35;;
67028;SDS011;53934;52.142;11.738;2022-12-07T11:15:20;8.20;;;3.30;;
67028;SDS011;53934;52.142;11.738;2022-12-07T11:17:54;8.02;;;3.40;;
67028;SDS011;53934;52.142;11.738;2022-12-07T11:20:34;7.88;;;3.28;;
67028;SDS011;53934;52.142;11.738;2022-12-07T11:23:11;8.13;;;3.03;;
67028;SDS011;53934;52.142;11.738;2022-12-07T11:25:47;8.32;;;2.83;;
67028;SDS011;53934;52.142;11.738;2022-12-07T11:28:22;7.53;;;2.72;;
67028;SDS011;53934;52.142;11.738;2022-12-07T11:30:59;3.92;;;2.55;;
67028;SDS011;53934;52.142;11.738;2022-12-07T11:33:41;8.02;;;2.58;;
67028;SDS011;53934;52.142;11.738;2022-12-07T11:36:16;7.38;;;2.67;;
67028;SDS011;53934;52.142;11.738;2022-12-07T11:38:56;9.70;;;3.63;;
67028;SDS011;53934;52.142;11.738;2022-12-07T11:41:27;4.93;;;2.45;;
67028;SDS011;53934;52.142;11.738;2022-12-07T11:43:59;4.03;;;2.28;;
67028;SDS011;53934;52.142;11.738;2022-12-07T11:46:35;9.40;;;2.97;;
67028;SDS011;53934;52.142;11.738;2022-12-07T11:49:14;9.57;;;3.10;;
67028;SDS011;53934;52.142;11.738;2022-12-07T11:51:47;9.20;;;2.78;;
67028;SDS011;53934;52.142;11.738;2022-12-07T11:54:18;3.95;;;2.40;;
67028;SDS011;53934;52.142;11.738;2022-12-07T11:56:49;8.60;;;2.25;;
67028;SDS011;53934;52.142;11.738;2022-12-07T11:59:19;25.50;;;4.78;;
67028;SDS011;53934;52.142;11.738;2022-12-07T12:01:53;4.63;;;2.30;;
67028;SDS011;53934;52.142;11.738;2022-12-07T12:04:30;5.70;;;2.22;;
67028;SDS011;53934;52.142;11.738;2022-12-07T12:07:06;5.28;;;2.10;;
67028;SDS011;53934;52.142;11.738;2022-12-07T12:09:34;3.75;;;1.88;;
67028;SDS011;53934;52.142;11.738;2022-12-07T12:12:12;6.32;;;2.38;;
67028;SDS011;53934;52.142;11.738;2022-12-07T12:14:55;6.80;;;2.33;;
67028;SDS011;53934;52.142;11.738;2022-12-07T12:17:43;7.07;;;2.15;;
67028;SDS011;53934;52.142;11.738;2022-12-07T12:20:22;6.22;;;2.20;;
67028;SDS011;53934;52.142;11.738;2022-12-07T12:22:53;3.90;;;2.15;;
67028;SDS011;53934;52.142;11.738;2022-12-07T12:25:24;4.45;;;1.80;;
67028;SDS011;53934;52.142;11.738;2022-12-07T12:27:54;9.10;;;2.30;;
67028;SDS011;53934;52.142;11.738;2022-12-07T12:30:25;6.45;;;2.22;;
67028;SDS011;53934;52.142;11.738;2022-12-07T12:33:01;5.90;;;1.85;;
67028;SDS011;53934;52.142;11.738;2022-12-07T12:35:32;8.98;;;2.08;;
67028;SDS011;53934;52.142;11.738;2022-12-07T12:40:53;10.48;;;2.13;;
67028;SDS011;53934;52.142;11.738;2022-12-07T12:49:14;5.90;;;1.63;;
67028;SDS011;53934;52.142;11.738;2022-12-07T12:52:00;6.20;;;1.92;;
67028;SDS011;53934;52.142;11.738;2022-12-07T12:54:57;7.93;;;1.90;;
67028;SDS011;53934;52.142;11.738;2022-12-07T12:57:26;5.72;;;1.52;;
67028;SDS011;53934;52.142;11.738;2022-12-07T12:59:56;3.60;;;1.50;;
67028;SDS011;53934;52.142;11.738;2022-12-07T13:02:24;8.73;;;2.05;;
67028;SDS011;53934;52.142;11.738;2022-12-07T13:04:54;7.43;;;1.65;;
67028;SDS011;53934;52.142;11.738;2022-12-07T13:10:31;6.65;;;1.85;;
67028;SDS011;53934;52.142;11.738;2022-12-07T13:13:02;7.10;;;1.45;;
67028;SDS011;53934;52.142;11.738;2022-12-07T13:15:31;5.38;;;1.40;;
67028;SDS011;53934;52.142;11.738;2022-12-07T13:18:00;5.95;;;1.92;;
67028;SDS011;53934;52.142;11.738;2022-12-07T13:23:27;9.18;;;1.92;;
67028;SDS011;53934;52.142;11.738;2022-12-07T13:25:59;6.82;;;2.45;;
67028;SDS011;53934;52.142;11.738;2022-12-07T13:28:32;4.15;;;1.00;;
67028;SDS011;53934;52.142;11.738;2022-12-07T13:31:04;5.25;;;1.38;;
67028;SDS011;53934;52.142;11.738;2022-12-07T13:33:41;4.45;;;1.33;;
67028;SDS011;53934;52.142;11.738;2022-12-07T13:36:10;5.80;;;1.50;;
67028;SDS011;53934;52.142;11.738;2022-12-07T13:38:49;4.55;;;1.30;;
67028;SDS011;53934;52.142;11.738;2022-12-07T13:41:19;6.35;;;1.67;;
67028;SDS011;53934;52.142;11.738;2022-12-07T13:43:48;3.28;;;1.10;;
67028;SDS011;53934;52.142;11.738;2022-12-07T13:46:17;7.55;;;1.10;;
67028;SDS011;53934;52.142;11.738;2022-12-07T13:48:48;4.78;;;1.00;;
67028;SDS011;53934;52.142;11.738;2022-12-07T13:51:17;5.03;;;1.30;;
67028;SDS011;53934;52.142;11.738;2022-12-07T13:53:50;6.05;;;1.52;;
67028;SDS011;53934;52.142;11.738;2022-12-07T13:56:18;8.55;;;1.83;;
67028;SDS011;53934;52.142;11.738;2022-12-07T13:58:47;5.53;;;1.38;;
67028;SDS011;53934;52.142;11.738;2022-12-07T14:01:13;6.28;;;1.50;;
67028;SDS011;53934;52.142;11.738;2022-12-07T14:03:40;4.45;;;1.48;;
67028;SDS011;53934;52.142;11.738;2022-12-07T14:06:18;8.93;;;2.00;;
67028;SDS011;53934;52.142;11.738;2022-12-07T14:11:31;5.90;;;2.05;;
67028;SDS011;53934;52.142;11.738;2022-12-07T14:13:58;6.10;;;1.67;;
67028;SDS011;53934;52.142;11.738;2022-12-07T14:16:30;5.72;;;2.60;;
67028;SDS011;53934;52.142;11.738;2022-12-07T14:18:58;6.30;;;2.42;;
67028;SDS011;53934;52.142;11.738;2022-12-07T14:21:26;4.40;;;1.92;;
67028;SDS011;53934;52.142;11.738;2022-12-07T14:24:14;5.63;;;2.50;;
67028;SDS011;53934;52.142;11.738;2022-12-07T14:26:43;8.40;;;2.63;;
67028;SDS011;53934;52.142;11.738;2022-12-07T14:29:31;7.05;;;2.88;;
67028;SDS011;53934;52.142;11.738;2022-12-07T14:34:41;9.27;;;3.10;;
67028;SDS011;53934;52.142;11.738;2022-12-07T14:37:18;5.85;;;2.67;;
67028;SDS011;53934;52.142;11.738;2022-12-07T14:39:46;7.90;;;3.13;;
67028;SDS011;53934;52.142;11.738;2022-12-07T14:42:12;9.45;;;3.67;;
67028;SDS011;53934;52.142;11.738;2022-12-07T14:44:39;10.90;;;3.28;;
67028;SDS011;53934;52.142;11.738;2022-12-07T14:47:07;8.77;;;3.60;;
67028;SDS011;53934;52.142;11.738;2022-12-07T14:49:34;8.00;;;3.95;;
67028;SDS011;53934;52.142;11.738;2022-12-07T14:52:01;9.98;;;3.65;;
67028;SDS011;53934;52.142;11.738;2022-12-07T14:54:29;7.82;;;4.10;;
67028;SDS011;53934;52.142;11.738;2022-12-07T14:56:59;9.48;;;3.60;;
67028;SDS011;53934;52.142;11.738;2022-12-07T14:59:25;7.10;;;3.45;;
67028;SDS011;53934;52.142;11.738;2022-12-07T15:01:52;5.32;;;2.72;;
67028;SDS011;53934;52.142;11.738;2022-12-07T15:04:18;10.88;;;3.10;;